Time;durP1;ratioP1;P1;durP2;ratioP2;P2;SDS_P1;SDS_P2;PMS_P1;PMS_P2;Temp;Humidity;BMP_temperature;BMP_pressure;BME280_temperature;BME280_humidity;BME280_pressure;Samples;Min_cycle;Max_cycle;Signal;HPM_P1;HPM_P2
2024/02/10 00:00:20;;;;;;;3.10;3.10;;;11.40;99.90;;;;;;10454859;28;20255;-83
2024/02/10 00:05:25;;;;;;;2.80;2.80;;;11.40;99.90;;;;;;10454657;28;20197;-82
2024/02/10 00:10:28;;;;;;;3.27;3.27;;;11.40;99.90;;;;;;10457011;28;20234;-82
2024/02/10 00:15:30;;;;;;;2.97;2.97;;;11.50;99.90;;;;;;10461960;28;20217;-84
2024/02/10 00:20:34;;;;;;;2.73;2.73;;;11.50;99.90;;;;;;10462687;28;20217;-82
2024/02/10 00:25:38;;;;;;;3.40;3.40;;;11.60;99.90;;;;;;10443878;28;20693;-80
2024/02/10 00:30:40;;;;;;;2.30;2.30;;;11.60;99.90;;;;;;10462405;28;20233;-81
2024/02/10 00:35:44;;;;;;;2.50;2.50;;;11.50;99.90;;;;;;10462201;28;20271;-84
2024/02/10 00:40:46;;;;;;;3.23;3.23;;;11.50;99.90;;;;;;10461547;28;20217;-83
2024/02/10 00:45:49;;;;;;;2.53;2.53;;;11.50;99.90;;;;;;10475910;28;20231;-82
2024/02/10 00:50:53;;;;;;;2.63;2.63;;;11.50;99.90;;;;;;10457946;28;20222;-82
2024/02/10 00:55:55;;;;;;;2.20;2.20;;;11.50;99.90;;;;;;10461166;28;20221;-80
2024/02/10 01:00:57;;;;;;;2.10;2.10;;;11.50;99.90;;;;;;10458700;28;20279;-78
2024/02/10 01:06:04;;;;;;;2.40;2.40;;;11.50;99.90;;;;;;10457881;28;20201;-77
2024/02/10 01:11:11;;;;;;;2.30;2.30;;;11.50;99.90;;;;;;10458724;28;20220;-83
2024/02/10 01:16:15;;;;;;;2.40;2.40;;;11.40;99.90;;;;;;10478428;28;20279;-82
2024/02/10 01:21:20;;;;;;;2.27;2.27;;;11.40;99.90;;;;;;10462956;28;20221;-81
2024/02/10 01:26:22;;;;;;;2.40;2.40;;;11.40;99.90;;;;;;10450273;28;20366;-82
2024/02/10 01:31:25;;;;;;;2.50;2.50;;;11.30;99.90;;;;;;10451047;28;20229;-83
2024/02/10 01:36:29;;;;;;;2.10;2.10;;;11.30;99.90;;;;;;10444152;28;20221;-82
2024/02/10 01:41:31;;;;;;;2.13;2.13;;;11.40;99.90;;;;;;10432890;28;20276;-81
2024/02/10 01:46:34;;;;;;;2.30;2.30;;;11.30;99.90;;;;;;10439201;28;20194;-82
2024/02/10 01:51:38;;;;;;;2.20;2.20;;;11.30;99.90;;;;;;10418661;28;20640;-82
2024/02/10 01:56:41;;;;;;;1.90;1.90;;;11.30;99.90;;;;;;10434663;28;20586;-82
2024/02/10 02:01:48;;;;;;;2.20;2.20;;;11.20;99.90;;;;;;10444697;28;20213;-83
2024/02/10 02:06:54;;;;;;;2.17;2.17;;;11.20;99.90;;;;;;10437020;28;20188;-82
2024/02/10 02:11:56;;;;;;;2.23;2.23;;;11.20;99.90;;;;;;10439347;28;20221;-82
2024/02/10 02:17:04;;;;;;;2.57;2.57;;;11.20;99.90;;;;;;10425089;28;20220;-81
2024/02/10 02:22:09;;;;;;;2.13;2.13;;;11.20;99.90;;;;;;10409945;28;20629;-83
2024/02/10 02:27:12;;;;;;;2.20;2.20;;;11.20;99.90;;;;;;10437583;28;20523;-82
2024/02/10 02:32:15;;;;;;;2.80;2.80;;;11.10;99.90;;;;;;10438702;28;20238;-82
2024/02/10 02:37:17;;;;;;;2.47;2.47;;;11.20;99.90;;;;;;10444804;28;20232;-79
2024/02/10 02:42:22;;;;;;;2.50;2.50;;;11.20;99.90;;;;;;10441974;28;20221;-80
2024/02/10 02:47:25;;;;;;;2.30;2.30;;;11.20;99.90;;;;;;10450338;28;20636;-83
2024/02/10 02:52:30;;;;;;;2.60;2.60;;;11.20;99.90;;;;;;10455904;28;20869;-80
2024/02/10 02:57:34;;;;;;;2.40;2.40;;;11.20;99.90;;;;;;10455786;28;20294;-82
2024/02/10 03:02:41;;;;;;;2.20;2.20;;;11.20;99.90;;;;;;10438592;28;20213;-81
2024/02/10 03:07:45;;;;;;;2.33;2.33;;;11.20;99.90;;;;;;10454440;28;20616;-82
2024/02/10 03:12:49;;;;;;;2.30;2.30;;;11.20;99.90;;;;;;10456293;28;20679;-82
2024/02/10 03:17:53;;;;;;;2.30;2.30;;;11.10;99.90;;;;;;10457080;28;20220;-80
2024/02/10 03:23:01;;;;;;;2.33;2.33;;;11.10;99.90;;;;;;10457553;28;20216;-82
2024/02/10 03:28:05;;;;;;;2.50;2.50;;;11.10;99.90;;;;;;10457095;28;20197;-83
2024/02/10 03:33:07;;;;;;;2.60;2.60;;;11.00;99.90;;;;;;10456885;28;20714;-80
2024/02/10 03:38:10;;;;;;;2.70;2.70;;;11.00;99.90;;;;;;10457812;28;20209;-83
2024/02/10 03:43:13;;;;;;;2.37;2.37;;;11.00;99.90;;;;;;10458948;28;20220;-82
2024/02/10 03:48:16;;;;;;;2.20;2.20;;;10.90;99.90;;;;;;10464778;28;20216;-82
2024/02/10 03:53:18;;;;;;;2.33;2.33;;;11.00;99.90;;;;;;10466227;28;20232;-82
2024/02/10 03:58:24;;;;;;;3.00;3.00;;;10.90;99.90;;;;;;10465334;28;20209;-83
2024/02/10 04:03:28;;;;;;;3.40;3.40;;;10.80;99.90;;;;;;10467090;28;20217;-82
2024/02/10 04:08:32;;;;;;;3.40;3.40;;;10.80;99.90;;;;;;10457113;28;20196;-81
2024/02/10 04:13:38;;;;;;;2.63;2.63;;;10.90;99.90;;;;;;10495983;28;20227;-81
2024/02/10 04:18:41;;;;;;;3.50;3.50;;;10.80;99.90;;;;;;10496459;28;20209;-80
2024/02/10 04:23:43;;;;;;;2.77;2.77;;;10.80;99.90;;;;;;10495672;28;20211;-84
2024/02/10 04:28:47;;;;;;;2.60;2.60;;;10.80;99.90;;;;;;10476769;28;20189;-82
2024/02/10 04:33:50;;;;;;;3.00;3.00;;;10.80;99.90;;;;;;10480266;28;20228;-82
2024/02/10 04:38:52;;;;;;;3.10;3.10;;;10.80;99.90;;;;;;10465843;28;20228;-82
2024/02/10 04:43:56;;;;;;;3.00;3.00;;;10.80;99.90;;;;;;10458209;28;20263;-82
2024/02/10 04:48:58;;;;;;;3.10;3.10;;;10.80;99.90;;;;;;10463020;28;20686;-80
2024/02/10 04:54:04;;;;;;;2.80;2.80;;;10.80;99.90;;;;;;10460068;28;20639;-80
2024/02/10 04:59:08;;;;;;;2.83;2.83;;;10.80;99.90;;;;;;10456214;28;20221;-79
2024/02/10 05:04:14;;;;;;;3.10;3.10;;;10.70;99.90;;;;;;10459875;28;20213;-82
2024/02/10 05:09:16;;;;;;;2.40;2.40;;;10.80;99.90;;;;;;10459206;28;20193;-82
2024/02/10 05:14:22;;;;;;;2.23;2.23;;;10.80;99.90;;;;;;10456472;28;20221;-81
2024/02/10 05:19:25;;;;;;;2.90;2.90;;;10.80;99.90;;;;;;10458529;28;20675;-82
2024/02/10 05:24:30;;;;;;;2.80;2.80;;;10.80;99.90;;;;;;10459137;28;20225;-83
2024/02/10 05:29:35;;;;;;;2.50;2.50;;;10.80;99.90;;;;;;10460011;28;20740;-81
2024/02/10 05:34:39;;;;;;;2.77;2.77;;;10.70;99.90;;;;;;10480250;22;20221;-79
2024/02/10 05:39:41;;;;;;;3.10;3.10;;;10.70;99.90;;;;;;10454812;28;20213;-80
2024/02/10 05:44:45;;;;;;;1.83;1.83;;;10.60;99.90;;;;;;10446313;28;20640;-79
2024/02/10 05:49:47;;;;;;;2.07;2.07;;;10.60;99.90;;;;;;10447064;28;20691;-79
2024/02/10 05:54:49;;;;;;;2.50;2.50;;;10.60;99.90;;;;;;10446270;28;20213;-79
2024/02/10 05:59:54;;;;;;;2.40;2.40;;;10.50;99.90;;;;;;10445984;28;20368;-77
2024/02/10 06:04:57;;;;;;;2.20;2.20;;;10.50;99.90;;;;;;10444583;28;20696;-78
2024/02/10 06:09:59;;;;;;;2.57;2.57;;;10.50;99.90;;;;;;10443198;28;20201;-77
2024/02/10 06:15:04;;;;;;;2.40;2.40;;;10.50;99.90;;;;;;10444297;28;20217;-78
2024/02/10 06:20:12;;;;;;;2.43;2.43;;;10.40;99.90;;;;;;10448056;28;20625;-77
2024/02/10 06:25:15;;;;;;;2.20;2.20;;;10.40;99.90;;;;;;10445202;28;20214;-79
2024/02/10 06:30:21;;;;;;;2.03;2.03;;;10.40;99.90;;;;;;10441764;28;20721;-78
2024/02/10 06:35:27;;;;;;;2.10;2.10;;;10.40;99.90;;;;;;10440564;28;20232;-79
2024/02/10 06:40:29;;;;;;;2.00;2.00;;;10.40;99.90;;;;;;10439732;28;20224;-76
2024/02/10 06:45:36;;;;;;;2.13;2.13;;;10.40;99.90;;;;;;10437913;28;20280;-77
2024/02/10 06:50:39;;;;;;;2.20;2.20;;;10.40;99.90;;;;;;10438262;28;20200;-77
2024/02/10 06:55:41;;;;;;;1.97;1.97;;;10.40;99.90;;;;;;10419775;28;20752;-78
2024/02/10 07:00:45;;;;;;;2.20;2.20;;;10.40;99.90;;;;;;10437106;28;20213;-77
2024/02/10 07:05:49;;;;;;;2.00;2.00;;;10.40;99.90;;;;;;10436278;28;20218;-78
2024/02/10 07:10:52;;;;;;;2.10;2.10;;;10.40;99.90;;;;;;10434102;28;20201;-77
2024/02/10 07:15:56;;;;;;;1.90;1.90;;;10.40;99.90;;;;;;10435578;28;20209;-77
2024/02/10 07:20:59;;;;;;;1.90;1.90;;;10.50;99.90;;;;;;10409887;28;20272;-77
2024/02/10 07:26:05;;;;;;;2.00;2.00;;;10.50;99.90;;;;;;10435017;28;20713;-78
2024/02/10 07:31:08;;;;;;;2.00;2.00;;;10.60;99.90;;;;;;10386032;28;20263;-77
2024/02/10 07:36:11;;;;;;;2.00;2.00;;;10.60;99.90;;;;;;10433943;28;20237;-76
2024/02/10 07:41:13;;;;;;;1.87;1.87;;;10.70;99.90;;;;;;10433304;28;20222;-77
2024/02/10 07:46:17;;;;;;;2.00;2.00;;;10.80;99.90;;;;;;10431494;28;20288;-78
2024/02/10 07:51:20;;;;;;;1.77;1.77;;;10.80;99.90;;;;;;10433259;28;20202;-78
2024/02/10 07:56:23;;;;;;;1.63;1.63;;;10.80;99.90;;;;;;10432414;28;20194;-77
2024/02/10 08:01:26;;;;;;;1.70;1.70;;;10.80;99.90;;;;;;10420341;28;20288;-76
2024/02/10 08:06:32;;;;;;;1.70;1.70;;;10.80;99.90;;;;;;10419232;28;20244;-78
2024/02/10 08:11:39;;;;;;;2.13;2.13;;;10.90;99.90;;;;;;10419049;28;20244;-79
2024/02/10 08:16:43;;;;;;;1.50;1.50;;;10.90;99.90;;;;;;10418432;28;20213;-79
2024/02/10 08:21:45;;;;;;;1.40;1.40;;;11.00;99.90;;;;;;10418621;28;20244;-78
2024/02/10 08:26:49;;;;;;;1.30;1.30;;;11.10;99.90;;;;;;10410449;28;20220;-78
2024/02/10 08:31:53;;;;;;;1.03;1.03;;;11.10;99.90;;;;;;10432384;28;20727;-78
2024/02/10 08:36:57;;;;;;;1.20;1.20;;;11.20;99.90;;;;;;10434859;28;20198;-77
2024/02/10 08:42:01;;;;;;;1.30;1.30;;;11.30;99.90;;;;;;10423769;28;20225;-78
2024/02/10 08:47:06;;;;;;;1.00;1.00;;;11.30;99.90;;;;;;10428378;28;20225;-77
2024/02/10 08:52:14;;;;;;;1.20;1.20;;;11.40;99.90;;;;;;10410602;28;20245;-79
2024/02/10 08:57:16;;;;;;;1.10;1.10;;;11.40;99.90;;;;;;10430506;28;20667;-79
2024/02/10 09:02:22;;;;;;;1.30;1.30;;;11.50;99.90;;;;;;10431000;28;20241;-78
2024/02/10 09:07:24;;;;;;;1.10;1.10;;;11.60;99.90;;;;;;10429369;28;20190;-79
2024/02/10 09:12:28;;;;;;;0.97;0.97;;;11.60;99.90;;;;;;10427753;28;20554;-77
2024/02/10 09:17:32;;;;;;;1.20;1.20;;;11.60;99.90;;;;;;10404884;28;20206;-78
2024/02/10 09:22:34;;;;;;;0.80;0.80;;;11.60;99.90;;;;;;10420711;28;20275;-79
2024/02/10 09:27:37;;;;;;;1.10;1.10;;;11.70;99.90;;;;;;10404598;28;20194;-79
2024/02/10 09:32:45;;;;;;;1.30;1.30;;;11.70;99.90;;;;;;10421284;28;20237;-78
2024/02/10 09:37:47;;;;;;;1.20;1.20;;;11.70;99.90;;;;;;10419553;28;20223;-79
2024/02/10 09:42:53;;;;;;;0.20;0.20;;;11.80;99.90;;;;;;10418836;28;20272;-79
2024/02/10 09:48:00;;;;;;;1.10;1.10;;;11.70;99.90;;;;;;10419924;28;20202;-77
2024/02/10 09:53:02;;;;;;;1.40;1.40;;;11.80;99.90;;;;;;10419357;28;20276;-77
2024/02/10 09:58:06;;;;;;;0.40;0.40;;;11.80;99.90;;;;;;10416802;28;20569;-79
2024/02/10 10:03:14;;;;;;;1.00;1.00;;;11.70;99.90;;;;;;10416338;28;20221;-75
2024/02/10 10:08:21;;;;;;;0.73;0.73;;;11.70;99.90;;;;;;10417521;28;20244;-77
2024/02/10 10:13:25;;;;;;;1.20;1.20;;;11.70;99.90;;;;;;10414809;28;20214;-76
2024/02/10 10:18:29;;;;;;;1.00;1.00;;;11.70;99.90;;;;;;10433958;28;20232;-78
2024/02/10 10:23:33;;;;;;;0.90;0.90;;;11.70;99.90;;;;;;10455227;28;20240;-78
2024/02/10 10:28:36;;;;;;;1.30;1.30;;;11.80;99.90;;;;;;10435616;28;20190;-78
2024/02/10 10:33:44;;;;;;;0.80;0.80;;;11.80;99.90;;;;;;10455129;28;20225;-76
2024/02/10 10:38:46;;;;;;;1.30;1.30;;;11.80;99.90;;;;;;10454663;28;20263;-77
2024/02/10 10:43:51;;;;;;;1.30;1.30;;;11.90;99.90;;;;;;10436871;28;20221;-79
2024/02/10 10:48:56;;;;;;;1.10;1.10;;;11.90;99.90;;;;;;10436513;28;20201;-79
2024/02/10 10:54:01;;;;;;;1.00;1.00;;;12.00;99.90;;;;;;10451514;28;20221;-78
2024/02/10 10:59:08;;;;;;;1.40;1.40;;;12.00;99.90;;;;;;10449688;28;20702;-78
2024/02/10 11:04:15;;;;;;;1.20;1.20;;;12.10;99.90;;;;;;10412819;28;20248;-78
2024/02/10 11:09:20;;;;;;;1.00;1.00;;;12.10;99.90;;;;;;10408846;28;20251;-78
2024/02/10 11:14:22;;;;;;;0.90;0.90;;;12.10;99.90;;;;;;10410365;28;20222;-78
2024/02/10 11:19:29;;;;;;;0.50;0.50;;;12.10;99.90;;;;;;10413862;28;20703;-79
2024/02/10 11:24:31;;;;;;;1.20;1.20;;;12.10;99.90;;;;;;10410431;28;20296;-78
2024/02/10 11:29:34;;;;;;;1.10;1.10;;;12.10;99.90;;;;;;10396608;28;20684;-80
2024/02/10 11:34:37;;;;;;;1.00;1.00;;;12.10;99.90;;;;;;10444706;22;20225;-78
2024/02/10 11:39:40;;;;;;;1.20;1.20;;;12.10;99.90;;;;;;10440576;28;20607;-78
2024/02/10 11:44:43;;;;;;;1.20;1.20;;;12.10;99.90;;;;;;10452175;28;20264;-78
2024/02/10 11:49:48;;;;;;;0.90;0.90;;;12.10;99.90;;;;;;10423457;28;20193;-78
2024/02/10 11:54:54;;;;;;;0.90;0.90;;;12.20;99.90;;;;;;10402005;28;20252;-78
2024/02/10 11:59:57;;;;;;;1.23;1.23;;;12.20;99.90;;;;;;10418121;28;20221;-79
2024/02/10 12:05:01;;;;;;;1.03;1.03;;;12.30;99.90;;;;;;10415372;28;20621;-78
2024/02/10 12:10:05;;;;;;;1.20;1.20;;;12.30;99.90;;;;;;10432665;28;20197;-78
2024/02/10 12:15:12;;;;;;;0.80;0.80;;;12.40;99.90;;;;;;10434881;28;20700;-78
2024/02/10 12:20:18;;;;;;;0.67;0.67;;;12.40;99.90;;;;;;10409452;28;20226;-78
2024/02/10 12:25:22;;;;;;;0.73;0.73;;;12.50;99.90;;;;;;10440066;28;20295;-78
2024/02/10 12:30:25;;;;;;;1.00;1.00;;;12.50;99.90;;;;;;10402871;28;20194;-78
2024/02/10 12:35:28;;;;;;;0.90;0.90;;;12.60;99.90;;;;;;10416080;28;20769;-78
2024/02/10 12:40:31;;;;;;;1.10;1.10;;;12.60;99.90;;;;;;10424362;28;20229;-78
2024/02/10 12:45:37;;;;;;;0.83;0.83;;;12.60;99.90;;;;;;10421956;28;20230;-78
2024/02/10 12:50:43;;;;;;;0.73;0.73;;;12.60;99.90;;;;;;10401450;28;20236;-79
2024/02/10 12:55:46;;;;;;;0.60;0.60;;;12.50;99.90;;;;;;10404447;28;20219;-79
2024/02/10 13:00:48;;;;;;;0.90;0.90;;;12.50;99.90;;;;;;10397154;28;20221;-79
2024/02/10 13:06:11;;;;;;;0.80;0.80;;;12.50;99.90;;;;;;10417004;28;20209;-79
2024/02/10 13:11:13;;;;;;;0.70;0.70;;;12.60;99.90;;;;;;10398898;28;20197;-78
2024/02/10 13:16:16;;;;;;;0.60;0.60;;;12.70;99.90;;;;;;10415077;28;20363;-79
2024/02/10 13:21:21;;;;;;;0.90;0.90;;;12.70;99.90;;;;;;10394713;28;20218;-79
2024/02/10 13:26:23;;;;;;;0.80;0.80;;;12.70;99.90;;;;;;10414161;28;20222;-79
2024/02/10 13:31:43;;;;;;;0.60;0.60;;;12.80;99.90;;;;;;10396961;28;20224;-79
2024/02/10 14:03:11;;;;;;;0.70;0.70;;;13.10;99.90;;;;;;10419939;28;20225;-78
2024/02/10 14:08:36;;;;;;;0.63;0.63;;;12.90;99.90;;;;;;10402172;28;20341;-79
2024/02/10 14:13:45;;;;;;;0.60;0.60;;;12.90;99.90;;;;;;10400798;28;20229;-79
2024/02/10 14:18:48;;;;;;;0.20;0.20;;;12.70;99.90;;;;;;10419862;28;20210;-78
2024/02/10 14:23:52;;;;;;;0.70;0.70;;;12.70;99.90;;;;;;10395288;28;20225;-79
2024/02/10 14:28:55;;;;;;;0.70;0.70;;;12.60;99.90;;;;;;10417907;28;20593;-79
2024/02/10 14:34:00;;;;;;;1.03;1.03;;;12.60;99.90;;;;;;10419636;28;20228;-79
2024/02/10 14:39:08;;;;;;;0.90;0.90;;;12.60;99.90;;;;;;10417326;28;20226;-79
2024/02/10 14:44:11;;;;;;;0.63;0.63;;;12.60;99.90;;;;;;10415907;28;20217;-79
2024/02/10 14:49:15;;;;;;;0.90;0.90;;;12.60;99.90;;;;;;10418939;28;20197;-79
2024/02/10 14:54:21;;;;;;;0.97;0.97;;;12.60;99.90;;;;;;10420227;28;20248;-78
2024/02/10 14:59:23;;;;;;;1.00;1.00;;;12.70;99.90;;;;;;10419889;28;20234;-79
2024/02/10 15:04:25;;;;;;;1.00;1.00;;;12.70;99.90;;;;;;10419646;28;20217;-79
2024/02/10 15:09:29;;;;;;;0.90;0.90;;;12.70;99.90;;;;;;10420985;28;20196;-79
2024/02/10 15:14:32;;;;;;;0.70;0.70;;;12.70;99.90;;;;;;10420681;28;20725;-79
2024/02/10 15:19:36;;;;;;;0.70;0.70;;;12.70;99.90;;;;;;10420532;28;20218;-79
2024/02/10 15:24:40;;;;;;;1.00;1.00;;;12.60;99.90;;;;;;10420192;28;20218;-79
2024/02/10 15:29:42;;;;;;;1.20;1.20;;;12.60;99.90;;;;;;10420447;28;20197;-79
2024/02/10 15:34:47;;;;;;;0.80;0.80;;;12.50;99.90;;;;;;10417841;28;20276;-79
2024/02/10 15:39:51;;;;;;;0.90;0.90;;;12.50;99.90;;;;;;10420481;28;20359;-79
2024/02/10 15:44:53;;;;;;;0.80;0.80;;;12.40;99.90;;;;;;10427169;28;20244;-78
2024/02/10 15:49:56;;;;;;;0.50;0.50;;;12.40;99.90;;;;;;10428847;28;20194;-79
2024/02/10 15:55:00;;;;;;;0.80;0.80;;;12.30;99.90;;;;;;10427427;28;20210;-79
2024/02/10 16:00:05;;;;;;;0.93;0.93;;;12.30;99.90;;;;;;10428864;28;20210;-79
2024/02/10 16:05:15;;;;;;;1.00;1.00;;;12.20;99.90;;;;;;10428338;28;20225;-79
2024/02/10 16:10:20;;;;;;;0.90;0.90;;;12.20;99.90;;;;;;10428937;28;20228;-79
2024/02/10 16:15:24;;;;;;;0.70;0.70;;;12.10;99.90;;;;;;10428215;28;20659;-79
2024/02/10 16:20:27;;;;;;;0.80;0.80;;;12.00;99.90;;;;;;10428340;28;20248;-79
2024/02/10 16:25:30;;;;;;;1.00;1.00;;;11.90;99.90;;;;;;10428560;28;20213;-79
2024/02/10 16:30:33;;;;;;;0.70;0.70;;;11.80;99.90;;;;;;10428948;28;20248;-79
2024/02/10 16:35:36;;;;;;;0.80;0.80;;;11.70;99.90;;;;;;10426818;28;20221;-79
2024/02/10 16:40:40;;;;;;;0.90;0.90;;;11.70;99.90;;;;;;10427841;28;20222;-79
2024/02/10 16:45:42;;;;;;;1.00;1.00;;;11.60;99.90;;;;;;10430684;28;20225;-80
2024/02/10 16:50:45;;;;;;;1.10;1.10;;;11.50;99.90;;;;;;10435020;28;20238;-80
2024/02/10 16:55:49;;;;;;;1.00;1.00;;;11.40;99.90;;;;;;10441490;28;20214;-80
2024/02/10 17:00:54;;;;;;;1.00;1.00;;;11.30;99.90;;;;;;10438554;28;20283;-79
2024/02/10 17:05:56;;;;;;;1.00;1.00;;;11.20;99.90;;;;;;10434984;28;20206;-79
2024/02/10 17:11:00;;;;;;;0.67;0.67;;;11.10;99.90;;;;;;10423011;28;20197;-80
2024/02/10 17:16:03;;;;;;;1.00;1.00;;;11.00;99.90;;;;;;10422065;28;20695;-79
2024/02/10 17:21:07;;;;;;;1.00;1.00;;;10.90;99.90;;;;;;10422788;28;20206;-79
2024/02/10 17:26:13;;;;;;;0.80;0.80;;;10.90;99.90;;;;;;10416447;28;20223;-79
2024/02/10 17:31:15;;;;;;;1.20;1.20;;;10.90;99.90;;;;;;10418025;28;20248;-79
2024/02/10 17:36:22;;;;;;;1.20;1.20;;;10.90;99.90;;;;;;10416047;28;20815;-79
2024/02/10 17:41:27;;;;;;;0.90;0.90;;;10.80;99.90;;;;;;10418673;28;20218;-79
2024/02/10 17:46:31;;;;;;;0.83;0.83;;;10.90;99.90;;;;;;10411343;28;20225;-79
2024/02/10 17:51:34;;;;;;;1.00;1.00;;;10.90;99.90;;;;;;10412595;28;20683;-79
2024/02/10 17:56:41;;;;;;;0.80;0.80;;;10.90;99.90;;;;;;10412953;28;20225;-79
2024/02/10 18:01:43;;;;;;;1.03;1.03;;;10.90;99.90;;;;;;10403240;28;20645;-79
2024/02/10 18:06:46;;;;;;;0.97;0.97;;;10.90;99.90;;;;;;10406434;28;20226;-79
2024/02/10 18:11:51;;;;;;;1.30;1.30;;;10.90;99.90;;;;;;10399432;28;20610;-78
2024/02/10 18:16:55;;;;;;;1.10;1.10;;;10.90;99.90;;;;;;10391511;28;20221;-79
2024/02/10 18:21:58;;;;;;;1.30;1.30;;;11.00;99.90;;;;;;10388343;28;20632;-79
2024/02/10 18:27:04;;;;;;;1.23;1.23;;;11.00;99.90;;;;;;10405558;28;20305;-79
2024/02/10 18:32:08;;;;;;;1.40;1.40;;;11.00;99.90;;;;;;10410986;28;20186;-79
2024/02/10 18:37:14;;;;;;;1.27;1.27;;;11.00;99.90;;;;;;10398086;28;20221;-79
2024/02/10 18:42:17;;;;;;;0.80;0.80;;;11.10;99.90;;;;;;10410992;28;20218;-79
2024/02/10 18:47:20;;;;;;;1.23;1.23;;;11.10;99.90;;;;;;10400722;28;20218;-79
2024/02/10 18:52:22;;;;;;;1.23;1.23;;;11.20;99.90;;;;;;10395994;28;20201;-79
2024/02/10 18:57:27;;;;;;;1.20;1.20;;;11.20;99.90;;;;;;10401130;28;20222;-79
2024/02/10 19:02:29;;;;;;;1.20;1.20;;;11.20;99.90;;;;;;10402018;28;20252;-78
2024/02/10 19:07:33;;;;;;;1.37;1.37;;;11.20;99.90;;;;;;10429398;22;20242;-79
2024/02/10 19:12:37;;;;;;;1.40;1.40;;;11.20;99.90;;;;;;10416382;28;20221;-80
2024/02/10 19:17:40;;;;;;;1.20;1.20;;;11.20;99.90;;;;;;10413680;28;20221;-80
2024/02/10 19:22:42;;;;;;;0.60;0.60;;;11.20;99.90;;;;;;10436456;28;20707;-79
2024/02/10 19:27:47;;;;;;;0.50;0.50;;;11.10;99.90;;;;;;10425006;28;20228;-78
2024/02/10 19:32:53;;;;;;;1.47;1.47;;;11.10;99.90;;;;;;10436172;28;20194;-80
2024/02/10 19:37:55;;;;;;;1.43;1.43;;;11.20;99.90;;;;;;10419726;28;20209;-79
2024/02/10 19:43:00;;;;;;;1.10;1.10;;;11.20;99.90;;;;;;10432509;28;20234;-79
2024/02/10 19:48:03;;;;;;;0.63;0.63;;;11.20;99.90;;;;;;10434017;28;20699;-80
2024/02/10 19:53:05;;;;;;;1.07;1.07;;;11.30;99.90;;;;;;10439030;28;20247;-78
2024/02/10 19:58:09;;;;;;;0.90;0.90;;;11.30;99.90;;;;;;10430589;28;20222;-77
2024/02/10 20:03:11;;;;;;;1.17;1.17;;;11.40;99.90;;;;;;10444777;28;20222;-78
2024/02/10 20:08:14;;;;;;;1.43;1.43;;;11.30;99.90;;;;;;10444790;28;20236;-79
2024/02/10 20:13:18;;;;;;;1.30;1.30;;;11.30;99.90;;;;;;10433229;28;20612;-79
2024/02/10 20:18:21;;;;;;;1.03;1.03;;;11.30;99.90;;;;;;10422644;28;20218;-79
2024/02/10 20:23:23;;;;;;;1.30;1.30;;;11.40;99.90;;;;;;10431967;28;20218;-79
2024/02/10 20:28:27;;;;;;;1.20;1.20;;;11.40;99.90;;;;;;10440368;28;20264;-80
2024/02/10 20:33:30;;;;;;;1.40;1.40;;;11.40;99.90;;;;;;10446610;28;20268;-80
2024/02/10 20:38:34;;;;;;;1.20;1.20;;;11.40;99.90;;;;;;10444661;28;20233;-78
2024/02/10 20:43:38;;;;;;;1.30;1.30;;;11.40;99.90;;;;;;10448590;28;20700;-79
2024/02/10 20:48:40;;;;;;;1.10;1.10;;;11.40;99.90;;;;;;10447526;28;20214;-80
2024/02/10 20:53:43;;;;;;;1.10;1.10;;;11.40;99.90;;;;;;10450354;28;20193;-79
2024/02/10 20:58:49;;;;;;;1.20;1.20;;;11.30;99.90;;;;;;10449286;28;20225;-79
2024/02/10 21:03:51;;;;;;;1.30;1.30;;;11.30;99.90;;;;;;10450266;28;20702;-78
2024/02/10 21:08:53;;;;;;;1.40;1.40;;;11.30;99.90;;;;;;10448796;28;20282;-77
2024/02/10 21:13:58;;;;;;;1.40;1.40;;;11.20;99.90;;;;;;10448885;28;20194;-78
2024/02/10 21:19:01;;;;;;;1.10;1.10;;;11.20;99.90;;;;;;10447846;28;20220;-80
2024/02/10 21:24:03;;;;;;;1.40;1.40;;;11.20;99.90;;;;;;10450079;28;20263;-77
2024/02/10 21:29:07;;;;;;;1.33;1.33;;;11.10;99.90;;;;;;10447412;28;20717;-78
2024/02/10 21:34:09;;;;;;;0.90;0.90;;;11.10;99.90;;;;;;10444936;28;20198;-78
2024/02/10 21:39:15;;;;;;;1.20;1.20;;;11.00;99.90;;;;;;10440806;28;20218;-79
2024/02/10 21:44:19;;;;;;;1.30;1.30;;;11.00;99.90;;;;;;10441058;28;20234;-78
2024/02/10 21:49:23;;;;;;;1.00;1.00;;;10.90;99.90;;;;;;10437328;28;20217;-80
2024/02/10 21:54:26;;;;;;;2.03;2.03;;;10.90;99.90;;;;;;10425422;28;20190;-78
2024/02/10 21:59:29;;;;;;;2.50;2.50;;;10.90;99.90;;;;;;10439210;28;20251;-79
2024/02/10 22:04:32;;;;;;;2.80;2.80;;;10.90;99.90;;;;;;10448022;28;20213;-79
2024/02/10 22:09:34;;;;;;;3.50;3.50;;;10.90;99.90;;;;;;10445106;28;20209;-80
2024/02/10 22:14:38;;;;;;;3.20;3.20;;;10.90;99.90;;;;;;10446091;28;20198;-77
2024/02/10 22:19:40;;;;;;;3.60;3.60;;;10.90;99.90;;;;;;10445160;28;20203;-79
2024/02/10 22:24:43;;;;;;;4.30;4.30;;;10.90;99.90;;;;;;10443549;28;20238;-80
2024/02/10 22:29:47;;;;;;;3.50;3.50;;;10.90;99.90;;;;;;10426630;28;20197;-79
2024/02/10 22:34:49;;;;;;;3.50;3.50;;;10.80;99.90;;;;;;10444420;28;20221;-79
2024/02/10 22:39:52;;;;;;;4.30;4.30;;;10.80;99.90;;;;;;10445071;28;20193;-80
2024/02/10 22:44:55;;;;;;;4.10;4.10;;;10.80;99.90;;;;;;10441956;28;20706;-78
2024/02/10 22:49:58;;;;;;;4.33;4.33;;;10.90;99.90;;;;;;10439063;28;20197;-79
2024/02/10 22:55:06;;;;;;;5.10;5.10;;;10.90;99.90;;;;;;10438742;28;20682;-80
2024/02/10 23:00:19;;;;;;;3.80;3.80;;;10.90;99.90;;;;;;10442833;28;20198;-79
2024/02/10 23:05:24;;;;;;;4.17;4.17;;;10.90;99.90;;;;;;10436657;28;20221;-80
2024/02/10 23:10:26;;;;;;;4.70;4.70;;;10.80;99.90;;;;;;10438700;28;20258;-80
2024/02/10 23:15:31;;;;;;;4.53;4.53;;;10.80;99.90;;;;;;10436418;28;20221;-80
2024/02/10 23:20:33;;;;;;;3.97;3.97;;;10.80;99.90;;;;;;10445755;28;20686;-80
2024/02/10 23:25:36;;;;;;;4.50;4.50;;;10.80;99.90;;;;;;10441611;28;20229;-79
2024/02/10 23:30:40;;;;;;;5.10;5.10;;;10.80;99.90;;;;;;10447403;28;20837;-79
2024/02/10 23:35:42;;;;;;;6.10;6.10;;;10.80;99.90;;;;;;10442665;28;20707;-79
2024/02/10 23:40:45;;;;;;;5.80;5.80;;;10.90;99.90;;;;;;10445744;28;20251;-80
2024/02/10 23:45:49;;;;;;;5.17;5.17;;;10.90;99.90;;;;;;10441964;28;20271;-79
2024/02/10 23:50:52;;;;;;;5.60;5.60;;;10.90;99.90;;;;;;10447510;28;20568;-77
2024/02/10 23:55:56;;;;;;;5.83;5.83;;;10.90;99.90;;;;;;10441717;28;20225;-79
